createdAt,value
2023-05-20T00:00:38.115Z,0.0000
2023-05-20T00:01:40.491Z,0.0000
2023-05-20T00:02:42.019Z,0.0000
2023-05-20T00:03:43.817Z,0.0000
2023-05-20T00:04:44.253Z,0.0000
2023-05-20T00:05:45.697Z,0.0000
2023-05-20T00:06:47.952Z,0.0000
2023-05-20T00:08:49.124Z,0.0000
2023-05-20T00:09:50.921Z,0.0000
2023-05-20T00:14:54.627Z,0.0000
2023-05-20T00:15:53.568Z,0.0000
2023-05-20T00:17:57.311Z,0.0000
2023-05-20T00:19:58.913Z,0.0000
2023-05-20T00:20:59.024Z,0.0000
2023-05-20T00:22:00.069Z,0.0000
2023-05-20T00:23:01.996Z,0.0000
2023-05-20T00:24:04.332Z,0.0000
2023-05-20T00:25:06.437Z,0.0000
2023-05-20T00:26:07.111Z,0.0000
2023-05-20T00:27:08.521Z,0.0000
2023-05-20T00:28:09.386Z,0.0000
2023-05-20T00:29:10.380Z,0.0000
2023-05-20T00:30:12.718Z,0.0000
2023-05-20T00:31:14.270Z,0.0000
2023-05-20T00:33:14.194Z,0.0000
2023-05-20T00:34:15.869Z,0.0000
2023-05-20T00:35:17.557Z,0.0000
2023-05-20T00:36:19.387Z,0.0000
2023-05-20T00:37:20.218Z,0.0000
2023-05-20T00:38:20.626Z,0.0000
2023-05-20T00:39:22.240Z,0.0000
2023-05-20T00:43:26.562Z,0.0000
2023-05-20T00:44:28.460Z,0.0000
2023-05-20T00:45:28.881Z,0.0000
2023-05-20T00:46:31.011Z,0.0000
2023-05-20T00:47:32.268Z,0.0000
2023-05-20T00:48:33.554Z,0.0000
2023-05-20T00:49:34.934Z,0.0000
2023-05-20T00:50:37.242Z,0.0000
2023-05-20T00:51:37.738Z,0.0000
2023-05-20T00:53:39.682Z,0.0000
2023-05-20T00:54:41.512Z,0.0000
2023-05-20T00:56:41.704Z,0.0000
2023-05-20T00:57:42.966Z,0.0000
2023-05-20T00:58:44.938Z,0.0000
2023-05-20T00:59:46.577Z,0.0000
2023-05-20T01:00:48.423Z,0.0000
2023-05-20T01:01:50.342Z,0.0000
2023-05-20T01:02:51.198Z,0.0000
2023-05-20T01:03:52.699Z,0.0000
2023-05-20T01:04:53.895Z,0.0000
2023-05-20T01:05:54.893Z,0.0000
2023-05-20T01:06:56.999Z,0.0000
2023-05-20T01:07:58.819Z,0.0000
2023-05-20T01:09:00.621Z,0.0000
2023-05-20T01:10:02.717Z,0.0000
2023-05-20T01:12:04.586Z,0.0000
2023-05-20T01:13:06.588Z,0.0000
2023-05-20T01:14:07.457Z,0.0000
2023-05-20T01:15:09.546Z,0.0000
2023-05-20T01:16:10.334Z,0.0000
2023-05-20T01:17:10.362Z,0.0000
2023-05-20T01:19:13.291Z,0.0000
2023-05-20T01:20:14.936Z,0.0000
2023-05-20T01:21:16.942Z,0.0000
2023-05-20T01:22:18.646Z,0.0000
2023-05-20T01:23:20.174Z,0.0000
2023-05-20T01:24:22.215Z,0.0000
2023-05-20T01:25:23.640Z,0.0000
2023-05-20T01:26:25.225Z,0.0000
2023-05-20T01:28:26.605Z,0.0000
2023-05-20T01:29:29.628Z,0.0000
2023-05-20T01:30:29.986Z,0.0000
2023-05-20T01:31:31.656Z,0.0000
2023-05-20T01:32:33.260Z,0.0000
2023-05-20T01:33:34.528Z,0.0000
2023-05-20T01:34:35.999Z,0.0000
2023-05-20T01:35:37.240Z,0.0000
2023-05-20T01:36:38.271Z,0.0000
2023-05-20T01:37:40.643Z,0.0000
2023-05-20T01:38:41.258Z,0.0000
2023-05-20T01:39:42.340Z,0.0000
2023-05-20T01:40:43.856Z,0.0000
2023-05-20T01:41:45.730Z,0.0000
2023-05-20T01:42:47.108Z,0.0000
2023-05-20T01:44:49.388Z,0.0000
2023-05-20T01:45:49.864Z,0.0000
2023-05-20T01:47:51.350Z,0.0000
2023-05-20T01:48:52.856Z,0.0000
2023-05-20T01:49:53.333Z,0.0000
2023-05-20T01:50:55.433Z,0.0000
2023-05-20T01:51:56.953Z,0.0000
2023-05-20T01:52:59.004Z,0.0000
2023-05-20T01:54:00.069Z,0.0000
2023-05-20T01:55:00.690Z,0.0000
2023-05-20T01:56:03.058Z,0.0000
2023-05-20T01:58:05.025Z,0.0000
2023-05-20T01:59:05.624Z,0.0000
2023-05-20T02:00:06.988Z,0.0000
2023-05-20T02:01:07.067Z,0.0000
2023-05-20T02:02:09.503Z,0.0000
2023-05-20T02:03:10.835Z,0.0000
2023-05-20T02:04:12.024Z,0.0000
2023-05-20T02:05:12.936Z,0.0000
2023-05-20T02:06:13.402Z,0.0000
2023-05-20T02:07:13.591Z,0.0000
2023-05-20T02:08:13.800Z,0.0000
2023-05-20T02:10:14.319Z,0.0000
2023-05-20T02:11:15.231Z,0.0000
2023-05-20T02:12:16.285Z,0.0000
2023-05-20T02:13:17.678Z,0.0000
2023-05-20T02:14:19.871Z,0.0000
2023-05-20T02:15:21.040Z,0.0000
2023-05-20T02:16:21.588Z,0.0000
2023-05-20T02:17:22.732Z,0.0000
2023-05-20T02:18:24.819Z,0.0000
2023-05-20T02:19:26.631Z,0.0000
2023-05-20T02:22:29.911Z,0.0000
2023-05-20T02:25:30.953Z,0.0000
2023-05-20T02:26:31.561Z,0.0000
2023-05-20T02:28:35.649Z,0.0000
2023-05-20T02:29:36.899Z,0.0000
2023-05-20T02:30:38.225Z,0.0000
2023-05-20T02:31:38.342Z,0.0000
2023-05-20T02:32:39.392Z,0.0000
2023-05-20T02:33:40.443Z,0.0000
2023-05-20T02:37:44.898Z,0.0000
2023-05-20T02:38:46.005Z,0.0000
2023-05-20T02:39:47.036Z,0.0000
2023-05-20T02:40:49.308Z,0.0000
2023-05-20T02:41:50.274Z,0.0000
2023-05-20T02:42:50.703Z,0.0000
2023-05-20T02:44:51.337Z,0.0000
2023-05-20T02:45:53.925Z,0.0000
2023-05-20T02:52:00.541Z,0.0000
2023-05-20T02:53:01.051Z,0.0000
2023-05-20T02:54:03.062Z,0.0000
2023-05-20T02:55:04.903Z,0.0000
2023-05-20T02:56:06.225Z,0.0000
2023-05-20T02:57:07.898Z,0.0000
2023-05-20T02:58:09.262Z,0.0000
2023-05-20T02:59:11.919Z,0.0000
2023-05-20T03:00:14.274Z,0.0000
2023-05-20T03:01:14.655Z,0.0000
2023-05-20T03:02:16.835Z,0.0000
2023-05-20T03:03:19.068Z,0.0000
2023-05-20T03:04:20.234Z,0.0000
2023-05-20T03:05:21.637Z,0.0000
2023-05-20T03:06:23.551Z,0.0000
2023-05-20T03:07:24.020Z,0.0000
2023-05-20T03:08:24.853Z,0.0000
2023-05-20T03:09:26.245Z,4.0000
2023-05-20T03:10:26.610Z,4.0000
2023-05-20T03:11:28.413Z,3.2308
2023-05-20T03:12:29.791Z,2.0000
2023-05-20T03:13:30.738Z,4.0000
2023-05-20T03:14:32.382Z,5.1667
2023-05-20T03:15:34.582Z,4.6667
2023-05-20T03:16:34.725Z,7.4783
2023-05-20T03:18:37.725Z,9.8333
2023-05-20T03:19:39.008Z,11.0400
2023-05-20T03:20:39.851Z,12.9600
2023-05-20T03:21:41.124Z,14.5000
2023-05-20T03:22:43.012Z,17.1667
2023-05-20T03:23:44.796Z,20.0000
2023-05-20T03:24:46.331Z,24.0000
2023-05-20T03:25:47.616Z,27.6667
2023-05-20T03:26:47.847Z,32.6154
2023-05-20T03:27:49.734Z,38.2222
2023-05-20T03:28:51.357Z,45.0000
2023-05-20T03:29:53.091Z,52.1600
2023-05-20T03:30:53.705Z,60.7692
2023-05-20T03:31:55.259Z,69.3846
2023-05-20T03:32:56.559Z,81.8333
2023-05-20T03:33:58.028Z,95.1667
2023-05-20T03:36:00.581Z,123.0769
2023-05-20T03:37:02.693Z,139.6667
2023-05-20T03:45:09.765Z,341.0769
2023-05-20T03:46:09.822Z,380.1538
2023-05-20T03:48:11.483Z,449.9259
2023-05-20T03:49:11.995Z,493.8462
2023-05-20T03:50:14.015Z,539.8333
2023-05-20T03:52:15.448Z,636.6667
2023-05-20T03:53:17.590Z,701.5000
2023-05-20T03:55:18.802Z,801.5000
2023-05-20T03:56:20.719Z,861.3333
2023-05-20T03:57:22.011Z,923.5000
2023-05-20T03:58:23.391Z,982.1539
2023-05-20T03:59:23.684Z,1042.5601
2023-05-20T04:00:25.800Z,1105.2800
2023-05-20T04:01:26.944Z,1168.5000
2023-05-20T04:02:29.860Z,1228.9600
2023-05-20T04:03:31.514Z,1291.6522
2023-05-20T04:04:32.330Z,1359.4783
2023-05-20T04:06:33.851Z,1505.7600
2023-05-20T04:07:34.887Z,1595.3846
2023-05-20T04:08:36.123Z,1698.5000
2023-05-20T04:09:37.542Z,1806.4615
2023-05-20T04:11:37.765Z,2051.5386
2023-05-20T04:12:37.968Z,2101.4399
2023-05-20T04:13:39.322Z,2131.2000
2023-05-20T04:15:40.263Z,2280.6155
2023-05-20T04:18:43.815Z,2464.0000
2023-05-20T04:19:44.187Z,2528.5217
2023-05-20T04:20:45.606Z,2640.8333
2023-05-20T04:21:47.684Z,2786.6667
2023-05-20T04:25:49.757Z,3269.1201
2023-05-20T04:26:50.656Z,3317.2800
2023-05-20T04:28:55.569Z,2835.6667
2023-05-20T04:29:56.505Z,2838.7827
2023-05-20T04:31:57.418Z,3019.8401
2023-05-20T04:32:58.614Z,3009.2307
2023-05-20T04:33:59.119Z,3170.9565
2023-05-20T04:35:01.612Z,3258.8333
2023-05-20T04:36:03.681Z,3471.0400
2023-05-20T04:42:11.454Z,3262.5000
2023-05-20T04:43:12.037Z,3359.6799
2023-05-20T04:44:12.486Z,3446.3076
2023-05-20T04:45:13.219Z,3518.4614
2023-05-20T04:46:14.512Z,3588.5217
2023-05-20T04:47:14.421Z,3731.8262
2023-05-20T04:48:16.147Z,3923.2307
2023-05-20T04:49:16.420Z,4136.0000
2023-05-20T04:50:18.756Z,4259.6665
2023-05-20T04:51:20.413Z,4274.1665
2023-05-20T04:53:20.411Z,4529.3335
2023-05-20T04:54:20.641Z,4608.9600
2023-05-20T04:55:22.831Z,4712.7690
2023-05-20T04:56:23.450Z,4774.8335
2023-05-20T04:57:24.515Z,4892.5220
2023-05-20T04:58:25.748Z,5178.3335
2023-05-20T04:59:28.353Z,5286.5601
2023-05-20T05:00:30.709Z,5290.1538
2023-05-20T05:01:31.996Z,5399.6665
2023-05-20T05:02:33.003Z,5444.6665
2023-05-20T05:03:36.582Z,5145.9199
2023-05-20T05:04:35.954Z,4262.3999
2023-05-20T05:06:37.514Z,3504.1667
2023-05-20T05:07:38.088Z,3767.6667
2023-05-20T05:08:37.841Z,4704.8696
2023-05-20T05:09:38.054Z,5596.9600
2023-05-20T05:10:38.996Z,6092.9229
2023-05-20T05:11:39.776Z,6553.1201
2023-05-20T05:12:40.038Z,6777.4399
2023-05-20T05:13:41.485Z,6674.1538
2023-05-20T05:14:41.858Z,6732.9600
2023-05-20T05:15:43.260Z,6880.7690
2023-05-20T05:16:44.814Z,6821.6001
2023-05-20T05:17:46.217Z,6877.6924
2023-05-20T05:18:48.046Z,7138.1665
2023-05-20T05:19:49.494Z,7043.1665
2023-05-20T05:20:50.756Z,6863.8462
2023-05-20T05:21:52.726Z,6893.2798
2023-05-20T05:22:54.083Z,7055.5000
2023-05-20T05:23:57.527Z,7108.8335
2023-05-20T05:26:00.405Z,7242.6665
2023-05-20T05:27:02.268Z,7220.1665
2023-05-20T05:28:03.672Z,7270.0000
2023-05-20T05:29:04.497Z,7480.6152
2023-05-20T05:30:05.226Z,7574.7202
2023-05-20T05:31:05.878Z,7490.7690
2023-05-20T05:32:07.290Z,7451.5000
2023-05-20T05:33:08.018Z,7574.4614
2023-05-20T05:34:09.554Z,7726.0801
2023-05-20T05:35:11.362Z,7760.3076
2023-05-20T05:36:12.614Z,7514.3335
2023-05-20T05:37:14.013Z,7551.3848
2023-05-20T05:38:15.140Z,8186.7202
2023-05-20T05:39:16.320Z,8349.6670
2023-05-20T05:40:17.008Z,8269.0771
2023-05-20T05:44:18.188Z,8512.0000
2023-05-20T05:45:19.016Z,8351.3604
2023-05-20T05:46:20.187Z,8553.6670
2023-05-20T05:48:24.900Z,9694.6152
2023-05-20T05:49:25.428Z,9623.3604
2023-05-20T05:51:25.719Z,10008.6152
2023-05-20T05:52:25.988Z,9974.0869
2023-05-20T05:53:26.635Z,9554.3076
2023-05-20T05:54:28.200Z,9442.8799
2023-05-20T05:55:30.108Z,9683.3330
2023-05-20T05:56:31.307Z,9889.3330
2023-05-20T05:57:33.654Z,9648.1543
2023-05-20T05:59:36.002Z,9339.1670
2023-05-20T06:08:43.374Z,12114.3330
2023-05-20T06:09:44.997Z,12015.1670
2023-05-20T06:10:46.509Z,11843.6670
2023-05-20T06:11:48.150Z,12161.1670
2023-05-20T06:12:49.748Z,12701.6670
2023-05-20T06:13:51.379Z,13109.0000
2023-05-20T06:14:53.519Z,13389.1670
2023-05-20T06:15:54.644Z,13834.0801
2023-05-20T06:16:55.854Z,13989.8330
2023-05-20T06:17:57.845Z,13867.3330
2023-05-20T06:19:01.593Z,13817.5000
2023-05-20T06:20:00.886Z,13757.0908
2023-05-20T06:21:03.004Z,13638.8330
2023-05-20T06:25:05.781Z,13353.8330
2023-05-20T06:26:07.182Z,13037.2803
2023-05-20T06:28:08.609Z,14885.7598
2023-05-20T06:29:09.377Z,15685.5996
2023-05-20T06:30:10.891Z,16131.8398
2023-05-20T06:31:11.698Z,16519.3340
2023-05-20T06:32:13.512Z,17186.6660
2023-05-20T06:33:15.747Z,16658.1543
2023-05-20T06:34:16.789Z,16146.2402
2023-05-20T06:35:18.749Z,15770.3330
2023-05-20T06:36:20.372Z,15556.0000
2023-05-20T06:38:21.119Z,17267.8457
2023-05-20T06:39:23.323Z,17777.3340
2023-05-20T06:40:24.462Z,18589.5391
2023-05-20T06:41:25.717Z,18831.3047
2023-05-20T06:42:26.625Z,18785.3906
2023-05-20T06:51:36.802Z,11021.5000
2023-05-20T06:52:37.595Z,10036.1543
2023-05-20T06:53:38.213Z,10023.0000
2023-05-20T06:54:39.695Z,9498.8330
2023-05-20T06:55:42.121Z,9109.6670
2023-05-20T06:56:43.014Z,8531.6797
2023-05-20T06:57:45.171Z,8271.3330
2023-05-20T06:58:45.558Z,7869.9131
2023-05-20T07:03:51.771Z,7521.8335
2023-05-20T07:04:51.976Z,7278.4614
2023-05-20T07:05:52.944Z,7049.5000
2023-05-20T07:06:55.672Z,6928.1665
2023-05-20T07:07:57.840Z,6958.0000
2023-05-20T07:09:00.077Z,6653.5000
2023-05-20T07:10:02.210Z,6797.3335
2023-05-20T07:12:04.663Z,10123.5000
2023-05-20T07:13:05.780Z,11052.6953
2023-05-20T07:14:06.395Z,11996.1670
2023-05-20T07:15:08.134Z,14757.6670
2023-05-20T07:16:09.518Z,15850.5596
2023-05-20T07:17:11.393Z,17034.6660
2023-05-20T07:18:13.157Z,17817.3340
2023-05-20T07:19:13.432Z,18758.4004
2023-05-20T07:20:14.169Z,18868.0000
2023-05-20T07:21:15.241Z,18339.6914
2023-05-20T07:22:16.575Z,17908.9238
2023-05-20T07:23:17.725Z,18729.3340
2023-05-20T07:24:20.076Z,18400.0000
2023-05-20T07:25:21.349Z,19364.1738
2023-05-20T07:27:22.420Z,19930.4355
2023-05-20T07:28:23.209Z,18872.6152
2023-05-20T07:30:24.416Z,21597.2168
2023-05-20T07:31:24.608Z,22176.0000
2023-05-20T07:34:28.951Z,21090.6660
2023-05-20T07:35:30.548Z,21337.0430
2023-05-20T07:36:30.999Z,19730.6660
2023-05-20T07:37:31.176Z,17115.4785
2023-05-20T07:38:32.449Z,15447.6523
2023-05-20T07:39:33.425Z,16245.7393
2023-05-20T07:41:32.972Z,15340.1738
2023-05-20T07:42:35.155Z,14396.9229
2023-05-20T07:43:37.663Z,14535.1309
2023-05-20T07:45:38.978Z,15624.4619
2023-05-20T07:46:39.571Z,16710.8340
2023-05-20T07:47:41.302Z,15783.3047
2023-05-20T07:48:41.618Z,14525.7393
2023-05-20T07:49:41.900Z,15220.0000
2023-05-20T07:50:42.823Z,17454.2617
2023-05-20T07:51:45.549Z,17188.4609
2023-05-20T07:52:56.094Z,15352.7998
2023-05-20T07:57:21.122Z,21289.7383
2023-05-20T07:58:21.808Z,21748.8691
2023-05-20T07:59:22.819Z,22881.2305
2023-05-20T08:00:24.622Z,24495.3047
2023-05-20T08:01:25.317Z,23666.6660
2023-05-20T08:02:26.455Z,22258.0879
2023-05-20T08:03:28.091Z,22978.4609
2023-05-20T08:04:28.761Z,24512.0000
2023-05-20T08:05:30.181Z,22543.3047
2023-05-20T08:06:31.412Z,21674.2402
2023-05-20T08:07:39.420Z,24548.1738
2023-05-20T08:12:38.774Z,19916.5215
2023-05-20T08:13:39.911Z,19525.3340
2023-05-20T08:18:43.059Z,28530.0879
2023-05-20T08:19:44.757Z,28581.5645
2023-05-20T08:21:45.202Z,26838.2617
2023-05-20T08:22:46.657Z,26073.3340
2023-05-20T08:23:47.876Z,25460.0000
2023-05-20T08:24:49.537Z,27933.2168
2023-05-20T08:25:51.447Z,29453.5391
2023-05-20T08:26:52.976Z,26268.3086
2023-05-20T08:27:53.615Z,21769.7383
2023-05-20T08:28:54.528Z,23482.4355
2023-05-20T08:29:54.791Z,24313.0430
2023-05-20T08:30:57.021Z,24246.1543
2023-05-20T08:31:57.850Z,23622.9570
2023-05-20T08:32:57.997Z,22859.1309
2023-05-20T08:33:59.157Z,23268.9238
2023-05-20T08:41:04.188Z,20016.6953
2023-05-20T08:42:03.784Z,18065.5645
2023-05-20T08:43:07.311Z,14677.5000
2023-05-20T08:44:07.685Z,18424.8691
2023-05-20T08:47:12.063Z,26068.0000
2023-05-20T08:48:12.695Z,25542.1543
2023-05-20T08:49:14.010Z,25364.8691
2023-05-20T08:50:15.232Z,24299.1309
2023-05-20T08:55:03.106Z,18696.0000
2023-05-20T08:56:03.760Z,16615.0000
2023-05-20T08:57:03.662Z,13865.2305
2023-05-20T08:58:03.954Z,12598.4346
2023-05-20T08:59:06.079Z,11760.1738
2023-05-20T09:00:07.694Z,10434.5000
2023-05-20T09:01:09.242Z,9177.6670
2023-05-20T09:02:09.980Z,8234.3076
2023-05-20T09:03:10.745Z,7513.5654
2023-05-20T09:04:11.828Z,8085.8462
2023-05-20T09:05:12.731Z,9683.0771
2023-05-20T09:06:13.672Z,12916.1738
2023-05-20T09:07:14.439Z,17250.2617
2023-05-20T09:08:14.947Z,21457.2305
2023-05-20T09:09:15.938Z,25181.2168
2023-05-20T09:10:16.700Z,27610.4355
2023-05-20T09:17:26.551Z,23130.4355
2023-05-20T09:18:26.549Z,21399.6523
2023-05-20T09:19:29.387Z,16006.9561
2023-05-20T09:20:29.934Z,13336.5215
2023-05-20T09:23:32.748Z,18946.6660
2023-05-20T09:24:35.416Z,19346.6660
2023-05-20T09:26:35.835Z,19194.4355
2023-05-20T09:27:38.188Z,14581.8330
2023-05-20T09:29:38.675Z,12706.6084
2023-05-20T09:30:39.585Z,12368.5215
2023-05-20T09:35:45.045Z,25086.6094
2023-05-20T09:36:46.501Z,30306.5605
2023-05-20T09:37:46.750Z,37757.2188
2023-05-20T09:38:47.907Z,48039.3828
2023-05-20T09:39:48.908Z,52793.0430
2023-05-20T09:41:49.659Z,48124.0000
2023-05-20T09:42:50.484Z,39827.4766
2023-05-20T09:43:51.205Z,29619.1992
2023-05-20T09:44:53.904Z,26497.3340
2023-05-20T09:45:55.223Z,33122.6680
2023-05-20T09:48:58.642Z,38505.4805
2023-05-20T09:49:59.137Z,34939.8242
2023-05-20T09:50:59.424Z,33313.3906
2023-05-20T09:52:00.254Z,39008.0000
2023-05-20T09:53:01.221Z,47112.0000
2023-05-20T09:54:03.225Z,51542.2617
2023-05-20T09:55:03.409Z,99129.0469
2023-05-20T09:56:04.928Z,60532.0000
2023-05-20T09:57:06.579Z,47339.1289
2023-05-20T09:59:07.237Z,49367.0391
2023-05-20T10:00:09.021Z,44034.6680
2023-05-20T10:01:09.674Z,40769.2305
2023-05-20T10:02:09.821Z,35318.2617
2023-05-20T10:03:13.031Z,28092.0000
2023-05-20T10:04:13.332Z,23622.9570
2023-05-20T10:05:14.652Z,21713.3340
2023-05-20T10:06:14.703Z,21156.1738
2023-05-20T10:07:15.707Z,21998.7695
2023-05-20T10:08:16.870Z,21721.3340
2023-05-20T10:09:17.345Z,22938.4355
2023-05-20T10:10:19.084Z,25015.6523
2023-05-20T10:11:19.486Z,26150.1543
2023-05-20T10:12:19.592Z,37115.8242
2023-05-20T10:13:21.321Z,36141.3320
2023-05-20T10:14:22.545Z,30724.9238
2023-05-20T10:15:23.206Z,24441.5996
2023-05-20T10:16:24.211Z,19976.3477
2023-05-20T10:17:25.115Z,17662.6094
2023-05-20T10:18:25.452Z,17685.7598
2023-05-20T10:19:25.818Z,18366.7695
2023-05-20T10:21:27.029Z,19821.9121
2023-05-20T10:22:27.344Z,22914.7832
2023-05-20T10:23:29.346Z,22265.3340
2023-05-20T10:24:31.209Z,18862.0801
2023-05-20T10:25:33.689Z,17453.0371
2023-05-20T10:26:33.542Z,20395.6367
2023-05-20T10:27:34.291Z,21992.3477
2023-05-20T10:28:35.461Z,20998.4004
2023-05-20T10:29:37.274Z,19181.3340
2023-05-20T10:30:41.547Z,19710.6660
2023-05-20T10:31:42.432Z,23175.2734
2023-05-20T10:33:45.736Z,20025.8457
2023-05-20T10:35:46.143Z,19091.4785
2023-05-20T10:38:46.198Z,22583.3848
2023-05-20T10:39:48.567Z,22961.2305
2023-05-20T10:40:48.988Z,26747.8262
2023-05-20T10:41:49.182Z,30788.1738
2023-05-20T10:42:49.607Z,34269.2188
2023-05-20T10:43:51.271Z,34123.0781
2023-05-20T10:44:52.559Z,29200.6953
2023-05-20T10:45:53.611Z,24162.7832
2023-05-20T10:47:55.378Z,18240.0000
2023-05-20T10:48:56.453Z,17383.6797
2023-05-20T10:49:57.773Z,16736.0000
2023-05-20T10:50:59.549Z,17198.7695
2023-05-20T10:52:01.022Z,19021.3340
2023-05-20T10:53:03.894Z,21378.6660
2023-05-20T10:55:06.368Z,28380.1602
2023-05-20T10:58:06.930Z,23975.6797
2023-05-20T10:59:07.197Z,25000.0000
2023-05-20T11:00:09.710Z,28250.6660
2023-05-20T11:01:12.182Z,34284.5234
2023-05-20T11:02:13.904Z,38004.9219
2023-05-20T11:03:16.626Z,39137.3906
2023-05-20T11:04:17.178Z,35624.3477
2023-05-20T11:05:17.457Z,32407.0391
2023-05-20T11:06:18.620Z,29990.9570
2023-05-20T11:07:19.598Z,26979.8398
2023-05-20T11:08:29.126Z,25348.9238
2023-05-20T11:09:22.650Z,24673.4551
2023-05-20T11:16:26.087Z,33768.3477
2023-05-20T11:22:28.146Z,37437.5391
2023-05-20T11:23:30.423Z,37485.5391
2023-05-20T11:24:31.716Z,36887.0391
2023-05-20T11:31:06.092Z,42472.3477
2023-05-20T11:32:08.346Z,45234.6680
2023-05-20T11:33:09.389Z,45142.1523
2023-05-20T11:34:09.735Z,58024.3477
2023-05-20T11:35:10.550Z,55932.0000
2023-05-20T11:36:26.385Z,57185.3906
2023-05-20T11:39:44.065Z,42970.6680
2023-05-20T11:40:50.617Z,39759.4062
2023-05-20T11:41:47.449Z,37790.6094
2023-05-20T11:42:47.795Z,40454.3984
2023-05-20T11:43:48.760Z,45593.0430
2023-05-20T11:44:50.552Z,51468.3086
2023-05-20T11:45:51.427Z,54887.3828
2023-05-20T11:46:52.961Z,48000.0000
2023-05-20T11:47:53.201Z,44482.4609
2023-05-20T11:48:54.904Z,42011.8242
2023-05-20T11:49:57.019Z,41057.3906
2023-05-20T11:50:57.098Z,43739.8242
2023-05-20T11:51:58.879Z,47220.8711
2023-05-20T11:53:01.130Z,48339.1992
2023-05-20T11:54:01.385Z,47344.6406
2023-05-20T11:55:03.798Z,46791.6797
2023-05-20T11:56:05.088Z,47918.7695
2023-05-20T11:57:07.066Z,46488.0000
2023-05-20T11:58:07.642Z,47728.0000
2023-05-20T11:59:08.058Z,45313.2305
2023-05-20T12:00:08.698Z,40624.6406
2023-05-20T12:01:21.786Z,40310.5195
2023-05-20T12:02:11.360Z,41974.8555
2023-05-20T12:03:11.858Z,41408.0000
2023-05-20T12:04:13.457Z,38888.9609
2023-05-20T12:05:13.634Z,36766.6094
2023-05-20T12:06:13.797Z,35393.2812
2023-05-20T12:07:13.931Z,35155.4766
2023-05-20T12:08:16.086Z,34096.6406
2023-05-20T12:09:18.608Z,34608.0000
2023-05-20T12:10:18.915Z,40169.3320
2023-05-20T12:11:19.500Z,44085.7617
2023-05-20T12:12:21.659Z,37505.1836
2023-05-20T12:13:23.487Z,44060.3086
2023-05-20T12:14:23.691Z,44753.2305
2023-05-20T12:15:24.785Z,43774.6680
2023-05-20T12:16:27.098Z,39970.4609
2023-05-20T12:17:28.856Z,41277.5391
2023-05-20T12:18:32.898Z,42854.6680
2023-05-20T12:20:34.029Z,48856.3203
2023-05-20T12:21:35.487Z,49639.6797
2023-05-20T12:22:36.224Z,45056.0000
2023-05-20T12:23:36.635Z,45717.7617
2023-05-20T12:24:36.745Z,47260.0000
2023-05-20T12:25:48.590Z,44877.3320
2023-05-20T12:27:07.940Z,38205.3320
2023-05-20T12:28:09.156Z,40058.6680
2023-05-20T12:29:09.924Z,43123.6914
2023-05-20T12:30:11.093Z,42432.0000
2023-05-20T12:31:11.835Z,42144.0000
2023-05-20T12:32:12.508Z,41194.6680
2023-05-20T12:33:13.930Z,42572.8008
2023-05-20T12:34:14.589Z,40243.4766
2023-05-20T12:35:14.596Z,39245.9141
2023-05-20T12:36:15.481Z,41867.5195
2023-05-20T12:37:16.443Z,44741.3320
2023-05-20T12:38:17.532Z,48259.6914
2023-05-20T12:39:19.652Z,48106.2383
2023-05-20T12:40:21.241Z,45389.3320
2023-05-20T12:41:22.093Z,42245.3320
2023-05-20T12:42:23.552Z,39017.3320
2023-05-20T12:43:27.679Z,37138.0000
2023-05-20T12:53:36.746Z,22974.6094
2023-05-20T12:54:37.346Z,25284.1738
2023-05-20T12:55:37.750Z,27987.6914
2023-05-20T12:59:43.432Z,45414.6680
2023-05-20T13:00:44.178Z,42536.6172
2023-05-20T13:02:46.483Z,37441.3320
2023-05-20T13:03:47.346Z,36688.6953
2023-05-20T13:04:47.467Z,37412.1758
2023-05-20T13:05:48.262Z,38265.6016
2023-05-20T13:06:48.938Z,41437.2188
2023-05-20T13:07:49.201Z,43872.0000
2023-05-20T13:10:55.328Z,57584.0000
2023-05-20T13:11:57.472Z,45524.9219
2023-05-20T13:13:59.088Z,36099.8398
2023-05-20T13:15:00.240Z,37492.8711
2023-05-20T13:16:01.029Z,41385.3320
2023-05-20T13:17:03.010Z,41621.3320
2023-05-20T13:18:04.287Z,40460.0000
2023-05-20T13:19:04.513Z,42023.3828
2023-05-20T13:20:06.471Z,39756.0000
2023-05-20T13:21:08.617Z,38643.1992
2023-05-20T13:22:09.043Z,36930.7812
2023-05-20T13:23:11.039Z,35866.0742
2023-05-20T13:24:13.474Z,35607.0391
2023-05-20T13:25:13.529Z,36215.6523
2023-05-20T13:26:14.060Z,36276.0000
2023-05-20T13:27:15.710Z,34920.9609
2023-05-20T13:28:16.170Z,33437.3320
2023-05-20T13:32:16.864Z,28183.6523
2023-05-20T13:33:17.838Z,27066.6660
2023-05-20T13:34:18.253Z,26652.0000
2023-05-20T13:35:19.470Z,26434.4609
2023-05-20T13:36:19.554Z,25960.6152
2023-05-20T13:37:21.008Z,27456.0000
2023-05-20T13:38:21.865Z,29239.6523
2023-05-20T13:39:22.976Z,30338.5605
2023-05-20T13:40:23.136Z,31857.9199
2023-05-20T13:41:23.990Z,31065.8457
2023-05-20T13:42:26.179Z,34377.8477
2023-05-20T13:43:26.757Z,38502.9570
2023-05-20T13:44:26.861Z,40454.9570
2023-05-20T13:45:28.967Z,39442.6680
2023-05-20T13:46:30.219Z,40936.9609
2023-05-20T13:47:32.317Z,44573.3320
2023-05-20T13:48:32.673Z,56459.1289
2023-05-20T13:49:35.691Z,58288.0000
2023-05-20T13:50:35.987Z,52425.8477
2023-05-20T13:51:37.274Z,51174.6680
2023-05-20T13:52:38.481Z,48305.2305
2023-05-20T13:53:38.689Z,50617.3320
2023-05-20T13:54:40.572Z,62843.2578
2023-05-20T13:55:41.808Z,60412.3086
2023-05-20T13:56:42.449Z,58013.2188
2023-05-20T13:57:43.189Z,52918.2617
2023-05-20T13:58:43.527Z,51486.7188
2023-05-20T13:59:44.069Z,47143.3828
2023-05-20T14:00:47.192Z,45789.4414
2023-05-20T14:01:48.600Z,43127.3828
2023-05-20T14:02:50.508Z,41613.5391
2023-05-20T14:04:50.949Z,38144.0000
2023-05-20T14:05:53.839Z,41324.8008
2023-05-20T14:06:54.071Z,38995.4766
2023-05-20T14:07:56.265Z,32197.3340
2023-05-20T14:08:57.858Z,29257.8457
2023-05-20T14:09:58.756Z,28689.9199
2023-05-20T14:10:59.462Z,28284.1602
2023-05-20T14:12:02.107Z,28550.4004
2023-05-20T14:14:02.420Z,26255.3594
2023-05-20T14:15:05.139Z,26620.0000
2023-05-20T14:16:05.913Z,27478.6660
2023-05-20T14:17:07.441Z,28037.1191
2023-05-20T14:18:09.423Z,28161.3340
2023-05-20T14:19:09.549Z,21571.8398
2023-05-20T14:21:11.354Z,19555.6914
2023-05-20T14:28:17.904Z,22993.3340
2023-05-20T14:29:19.059Z,22554.4355
2023-05-20T14:31:21.707Z,21357.5391
2023-05-20T14:32:22.445Z,20934.4004
2023-05-20T14:33:24.316Z,20781.0371
2023-05-20T14:34:26.115Z,20788.0000
2023-05-20T14:35:27.335Z,20978.0879
2023-05-20T14:37:28.090Z,21228.3086
2023-05-20T14:39:30.327Z,20854.6660
2023-05-20T14:40:31.657Z,20422.9570
2023-05-20T14:41:33.215Z,19695.3047
2023-05-20T14:42:33.863Z,19138.7832
2023-05-20T14:43:34.935Z,18947.8398
2023-05-20T14:44:35.976Z,18198.6660
2023-05-20T14:45:36.941Z,17576.3477
2023-05-20T14:48:39.128Z,16246.0000
2023-05-20T14:49:39.689Z,16121.3330
2023-05-20T14:51:40.347Z,16106.4346
2023-05-20T14:52:40.911Z,16360.6953
2023-05-20T14:53:40.401Z,16617.2734
2023-05-20T14:54:42.777Z,16908.0000
2023-05-20T14:55:43.728Z,17305.0430
2023-05-20T14:56:44.779Z,17885.5391
2023-05-20T14:57:45.658Z,18438.9570
2023-05-20T14:58:46.336Z,18949.3340
2023-05-20T14:59:47.563Z,19781.5645
2023-05-20T15:00:49.126Z,20417.2305
2023-05-20T15:01:50.234Z,21094.9570
2023-05-20T15:02:50.374Z,21576.3477
2023-05-20T15:03:50.530Z,21949.5391
2023-05-20T15:04:51.061Z,22246.9570
2023-05-20T15:05:51.221Z,22354.0879
2023-05-20T15:07:55.517Z,22304.0000
2023-05-20T15:08:56.387Z,22318.0801
2023-05-20T15:09:57.005Z,22362.4355
2023-05-20T15:10:59.115Z,22289.3340
2023-05-20T15:12:01.100Z,22150.4004
2023-05-20T15:13:01.636Z,21833.7383
2023-05-20T15:14:03.318Z,21641.3340